Aérodrome :
LOGIN :

S'inscrire | Disclaimer

   EN    FR    IT 

 










Légende :    VFR   VFR Marginal   IFR   IFR Intensif   IFR Très Intensif
Visi : 
Plafond : 
>= 8 km
>= 3000ft
5 à 8 km
1000 à 3000 ft
1500m à 5 km
500 à 1000 ft
800 à 1500m
200 à 500 ft
< 800m
< 200 ft
Symboles :   Orages  Brouillard  Fortes neiges  Fortes précipitations  Vent > 20 kt
SIGMETs :   Divers  Orages  Givrage  Turbulence  Onde Orograph.  Cendres Volcan.







- Altitude de l'aérodrome : 1300 ft
- Code IATA : LIG
- Voir les cartes d'approche


LFBL - Limoges

DERNIER METAR :
  • 280300Z AUTO 22013KT 9999 -RA FEW035/// BKN041/// BKN054/// ///TCU 04/03 Q1002 TEMPO 22020G40KT 4000 RA BKN008 SCT015TCU

METARs EXPIRÉS :
  • 280230Z AUTO 23011KT 9999 ///TCU 04/03 Q1003 TEMPO 22020G40KT 4000 RA BKN008 SCT015TCU
  • 280200Z AUTO 22011KT CAVOK 04/02 Q1002 TEMPO 22020G40KT 4000 RA BKN008 SCT015TCU
  • 280130Z AUTO 23014KT 9999 FEW034/// SCT062/// BKN072/// ///TCU 04/02 Q1002 TEMPO 22020G40KT 4000 RA BKN008 SCT015TCU
  • 280100Z AUTO 23017G31KT 200V260 9999 -RA FEW011 SCT016 BKN023 04/02 Q1003 TEMPO 4000 RA BKN008 SCT015TCU
  • 280030Z AUTO 24010KT 9999 -RA BKN011/// OVC024/// ///TCU 04/03 Q1003 TEMPO 22020G40KT 4000 RA BKN008 SCT015TCU

TAF TAF LFBL
Valide du 28 à 00h jusqu'au 01 à 00h UTC


272300Z 2800/2824 23015KT 9999 -RA BKN012 BKN018
TEMPO 2800/2809 22020G40KT 4000 RA BKN008 SCT015TCU
TEMPO 2809/2816 22022G43KT 5000 SHRA BKN010 SCT015CB
PROB40
TEMPO 2813/2816 3000 TSRAGS SCT006 BKN015CB
ATIS : +33 5 55 48 40 37
Pas de NOTAMs connus pour ce terrain.
1 SIGMET publié pour la FIR Bordeaux (LFBB) :
 
Turbulence forte
LFBB SIGMET 6 VALID 280000/280400 LFPW
LFBB BORDEAUX FIR/UIR SEV TURB FCST W OF LINE N4300 W00100 - N4630 W00100 SFC/FL060 STNR NC=



MET'MAP, la Météo Aéronautique d'un coup d'oeil ! - Copyright ORBIFLY Décembre 2007 - Disclaimer

ORBIFLY MET'MAP TEAM :

Programmation & Développement : Alexandra Zaïnal
Conception & Développement : Baudouin d'Aumeries
Co-Programmation & Développement : Marc-Olivier Méhu
Soutien technique & logistique : Manuel Goepfert

Contact : metmap@orbifly.com




SOURCES & CREDITS :

   NOAA